Aeroporto :
LOGIN :

Iscrizione | Disclaimer

   EN    FR    IT 

 










Sommario :    VFR   VFR Marginale   IFR   IFR Intensivo   IFR Molto Intensivo
Visibilità : 
Base nubi : 
>= 8 km
>= 3000ft
5 / 8 km
1000 / 3000 ft
1500m / 5 km
500 / 1000 ft
800 / 1500m
200 / 500 ft
< 800m
< 200 ft
Simboli :   Temporali  Nebbia  Neve Forte  Precipitazioni Forti  Vento > 20 kt
SIGMETs :   Varie  Temporali  Ghiacco  Turbolenza  Onda orograficha  Ceneri Vulcaniche






- Altitudine del aeroporto : 2265 ft
- Codice IATA : CZL


DABC - Mohamed Boudiaf Int. Constantine

ULTIMO METAR :
  • 191930Z 03005KT 360V060 9999 FEW020 SCT030 08/03 Q1029

METARs OBSOLETI :
  • 191900Z 02003KT 9999 FEW020 BKN030 08/04 Q1029
  • 191830Z 02004KT 350V050 9999 FEW020 BKN026 08/03 Q1029
  • 191800Z 02006KT 9999 FEW020 BKN026 08/03 Q1028
  • 191730Z 02007KT 9999 FEW020 BKN026 09/04 Q1028
  • 191700Z 03008KT 9999 FEW020 BKN026 09/04 Q1028

TAF TAF DABC
Valido dal 19 a 18 ore il 20 a 18 ore UTC


191700Z 1918/2018 35008KT 9999 FEW020 BKN030
PROB30
TEMPO 1918/1921 5000 -RA FEW020TCU
BECMG 1920/1922 17004KT
PROB30
TEMPO 2000/2006 VRB02KT 2000 BR BKN010
BECMG 2012/2014 02006KT



MetMap, La meteo Aeronautica in un colpo d'occhio ! - Copyright ORBIFLY Dicembre 2007 - Disclaimer

ORBIFLY MET'MAP TEAM :

Programmazione e sviluppo : Alexandra Zaïnal
Concezione : Baudouin d'Aumeries
Aiuto per la programmazione : Marc-Olivier Méhu
Supporto tecnico e logistico : Manuel Goepfert
Aiuto per la traduzione : Arnaldo La Scala

Contatto : metmap@orbifly.com




FONTI E CREDITI :

   NOAA